Time;durP1;ratioP1;P1;durP2;ratioP2;P2;SDS_P1;SDS_P2;PMS_P1;PMS_P2;Temp;Humidity;BMP_temperature;BMP_pressure;BME280_temperature;BME280_humidity;BME280_pressure;Samples;Min_cycle;Max_cycle;Signal;HPM_P1;HPM_P2
2022/04/19 00:00:42;;;;;;;;;;;8.20;95.60;;;;;;5009104;28;19920;-70
2022/04/19 00:03:08;;;;;;;;;;;8.20;95.80;;;;;;5009018;28;19918;-70
2022/04/19 00:05:33;;;;;;;;;;;8.10;96.10;;;;;;5010613;28;20202;-70
2022/04/19 00:07:59;;;;;;;;;;;8.10;96.10;;;;;;5024031;23;19925;-67
2022/04/19 00:10:28;;;;;;;;;;;8.10;96.10;;;;;;5014773;28;19963;-67
2022/04/19 00:12:55;;;;;;;;;;;8.10;96.20;;;;;;5020386;28;19920;-67
2022/04/19 00:15:21;;;;;;;;;;;8.10;96.10;;;;;;5018347;28;19956;-67
2022/04/19 00:17:47;;;;;;;;;;;8.10;96.00;;;;;;5014519;28;20292;-67
2022/04/19 00:20:13;;;;;;;;;;;8.10;96.00;;;;;;5000858;28;19914;-67
2022/04/19 00:22:38;;;;;;;;;;;8.00;96.20;;;;;;5000964;28;19925;-67
2022/04/19 00:25:06;;;;;;;;;;;8.00;96.00;;;;;;5000454;28;20015;-67
2022/04/19 00:27:31;;;;;;;;;;;8.00;96.00;;;;;;5000777;28;20303;-67
2022/04/19 00:29:58;;;;;;;;;;;8.00;96.40;;;;;;5001097;28;19914;-67
2022/04/19 00:32:24;;;;;;;;;;;8.00;96.40;;;;;;5001356;28;20582;-67
2022/04/19 00:34:50;;;;;;;;;;;7.90;96.90;;;;;;5001683;28;19922;-67
2022/04/19 00:37:16;;;;;;;;;;;7.90;97.10;;;;;;5000805;28;20074;-67
2022/04/19 00:39:41;;;;;;;;;;;7.90;96.80;;;;;;5001340;28;19920;-67
2022/04/19 00:42:07;;;;;;;;;;;7.80;97.20;;;;;;4999958;28;19913;-67
2022/04/19 00:44:37;;;;;;;;;;;7.80;97.00;;;;;;5001612;28;20359;-67
2022/04/19 00:47:07;;;;;;;;;;;7.80;97.10;;;;;;5000356;28;19917;-67
2022/04/19 00:49:33;;;;;;;;;;;7.80;97.30;;;;;;5000917;28;19914;-67
2022/04/19 00:51:59;;;;;;;;;;;7.70;97.10;;;;;;5000325;28;19913;-67
2022/04/19 00:54:25;;;;;;;;;;;7.70;97.20;;;;;;5000792;28;19987;-67
2022/04/19 00:56:50;;;;;;;;;;;7.70;97.10;;;;;;4999441;28;19918;-67
2022/04/19 00:59:15;;;;;;;;;;;7.60;97.10;;;;;;5001339;28;20012;-67
2022/04/19 01:01:41;;;;;;;;;;;7.60;97.10;;;;;;5000424;28;19914;-67
2022/04/19 01:04:06;;;;;;;;;;;7.60;97.50;;;;;;5000701;28;19914;-66
2022/04/19 01:06:32;;;;;;;;;;;7.50;97.80;;;;;;5000650;28;19913;-67
2022/04/19 01:08:57;;;;;;;;;;;7.60;97.50;;;;;;5000441;28;19976;-66
2022/04/19 01:14:07;;;;;;;;;;;7.60;97.40;;;;;;5000544;28;19928;-67
2022/04/19 01:16:33;;;;;;;;;;;7.50;97.70;;;;;;5000819;28;19917;-66
2022/04/19 01:19:01;;;;;;;;;;;7.50;97.60;;;;;;4999420;28;19917;-67
2022/04/19 01:21:41;;;;;;;;;;;7.50;97.60;;;;;;5000614;28;19922;-67
2022/04/19 01:24:07;;;;;;;;;;;7.50;97.60;;;;;;5000326;28;20004;-67
2022/04/19 01:26:32;;;;;;;;;;;7.50;97.50;;;;;;5000588;28;20029;-66
2022/04/19 01:28:57;;;;;;;;;;;7.40;97.90;;;;;;4999162;28;20019;-67
2022/04/19 01:31:23;;;;;;;;;;;7.40;97.70;;;;;;5000420;28;19914;-67
2022/04/19 01:33:49;;;;;;;;;;;7.30;98.00;;;;;;5000723;28;19975;-67
2022/04/19 01:36:14;;;;;;;;;;;7.30;98.20;;;;;;5000035;28;19918;-67
2022/04/19 01:38:40;;;;;;;;;;;7.30;98.20;;;;;;5000660;28;19920;-67
2022/04/19 01:41:05;;;;;;;;;;;7.20;98.50;;;;;;5000323;28;19920;-66
2022/04/19 01:43:31;;;;;;;;;;;7.10;98.60;;;;;;5000854;28;19936;-67
2022/04/19 01:45:56;;;;;;;;;;;7.10;98.60;;;;;;4999284;28;19917;-67
2022/04/19 01:48:22;;;;;;;;;;;7.10;98.70;;;;;;4999703;28;19972;-66
2022/04/19 01:50:47;;;;;;;;;;;7.00;98.70;;;;;;4999475;28;19929;-67
2022/04/19 01:53:13;;;;;;;;;;;7.00;98.80;;;;;;5000076;28;19940;-67
2022/04/19 01:55:39;;;;;;;;;;;7.00;98.90;;;;;;4999804;28;20298;-66
2022/04/19 01:58:04;;;;;;;;;;;7.00;98.90;;;;;;5000142;28;19909;-67
2022/04/19 02:00:30;;;;;;;;;;;6.90;98.90;;;;;;5000876;28;19920;-67
2022/04/19 02:02:56;;;;;;;;;;;6.90;98.90;;;;;;4999987;28;19975;-67
2022/04/19 02:05:21;;;;;;;;;;;6.90;99.30;;;;;;4999254;28;20017;-67
2022/04/19 02:07:47;;;;;;;;;;;6.90;99.30;;;;;;4999738;28;19943;-67
2022/04/19 02:10:14;;;;;;;;;;;6.80;99.20;;;;;;4999820;28;19917;-66
2022/04/19 02:12:40;;;;;;;;;;;6.80;99.00;;;;;;4999885;28;19917;-67
2022/04/19 02:15:06;;;;;;;;;;;6.80;99.40;;;;;;4998585;28;20433;-66
2022/04/19 02:17:32;;;;;;;;;;;6.70;99.50;;;;;;4999088;28;19910;-67
2022/04/19 02:20:01;;;;;;;;;;;6.70;99.50;;;;;;4999518;28;19979;-67
2022/04/19 02:22:27;;;;;;;;;;;6.70;99.70;;;;;;4999394;28;20355;-66
2022/04/19 02:24:53;;;;;;;;;;;6.70;99.80;;;;;;4999538;28;19921;-67
2022/04/19 02:27:18;;;;;;;;;;;6.60;99.80;;;;;;4998684;28;19964;-67
2022/04/19 02:29:44;;;;;;;;;;;6.60;99.80;;;;;;4999630;28;20009;-66
2022/04/19 02:32:09;;;;;;;;;;;6.50;99.60;;;;;;4999013;28;19914;-66
2022/04/19 02:34:35;;;;;;;;;;;6.50;99.70;;;;;;4999356;28;19919;-66
2022/04/19 02:37:00;;;;;;;;;;;6.50;99.60;;;;;;4998789;28;19913;-67
2022/04/19 02:39:25;;;;;;;;;;;6.50;99.60;;;;;;4999802;28;19914;-66
2022/04/19 02:41:52;;;;;;;;;;;6.50;99.50;;;;;;4998741;28;19914;-67
2022/04/19 02:44:17;;;;;;;;;;;6.40;99.40;;;;;;5000068;28;19944;-67
2022/04/19 02:46:43;;;;;;;;;;;6.40;99.50;;;;;;4999391;28;20289;-66
2022/04/19 02:49:08;;;;;;;;;;;6.40;99.30;;;;;;4999869;28;19960;-66
2022/04/19 02:51:35;;;;;;;;;;;6.40;99.40;;;;;;4997719;28;20403;-66
2022/04/19 02:54:00;;;;;;;;;;;6.40;99.40;;;;;;4999699;28;19924;-67
2022/04/19 02:56:26;;;;;;;;;;;6.40;99.30;;;;;;4998891;28;19913;-67
2022/04/19 02:58:52;;;;;;;;;;;6.40;99.40;;;;;;4999685;28;20263;-66
2022/04/19 03:01:18;;;;;;;;;;;6.40;99.40;;;;;;4998587;28;19918;-67
2022/04/19 03:03:44;;;;;;;;;;;6.40;99.90;;;;;;4999220;28;19920;-66
2022/04/19 03:06:09;;;;;;;;;;;6.30;99.70;;;;;;4999277;28;20004;-66
2022/04/19 03:08:35;;;;;;;;;;;6.40;99.90;;;;;;4999361;28;19924;-67
2022/04/19 03:11:01;;;;;;;;;;;6.30;99.90;;;;;;4998468;28;19929;-67
2022/04/19 03:13:29;;;;;;;;;;;6.30;99.80;;;;;;4999127;28;19932;-66
2022/04/19 03:15:55;;;;;;;;;;;6.30;99.70;;;;;;4998952;28;20349;-66
2022/04/19 03:18:21;;;;;;;;;;;6.30;99.60;;;;;;4999091;28;20375;-67
2022/04/19 03:20:47;;;;;;;;;;;6.20;99.70;;;;;;4999876;28;19917;-67
2022/04/19 03:28:41;;;;;;;;;;;6.20;99.90;;;;;;4998062;28;19925;-66
2022/04/19 03:31:07;;;;;;;;;;;6.10;99.90;;;;;;4998950;28;20361;-67
2022/04/19 03:33:32;;;;;;;;;;;6.10;99.90;;;;;;4999118;28;19918;-66
2022/04/19 03:35:59;;;;;;;;;;;6.00;99.90;;;;;;5001908;28;19917;-67
2022/04/19 03:38:25;;;;;;;;;;;6.00;99.90;;;;;;5002710;28;20165;-66
2022/04/19 03:40:50;;;;;;;;;;;6.00;99.90;;;;;;5002641;28;20282;-66
2022/04/19 03:43:16;;;;;;;;;;;6.00;99.90;;;;;;5002453;28;19917;-67
2022/04/19 03:45:41;;;;;;;;;;;6.00;99.90;;;;;;5001478;28;19972;-66
2022/04/19 03:48:07;;;;;;;;;;;6.00;99.90;;;;;;5002148;28;19980;-66
2022/04/19 03:50:32;;;;;;;;;;;5.90;99.90;;;;;;5002235;28;20375;-66
2022/04/19 03:52:58;;;;;;;;;;;5.90;99.90;;;;;;5002337;28;19910;-67
2022/04/19 03:55:23;;;;;;;;;;;5.90;99.90;;;;;;5002108;28;19968;-66
2022/04/19 03:57:49;;;;;;;;;;;5.80;99.90;;;;;;5002433;28;19992;-66
2022/04/19 04:00:14;;;;;;;;;;;5.80;99.90;;;;;;5001112;28;19965;-66
2022/04/19 04:02:40;;;;;;;;;;;5.80;99.90;;;;;;5001455;28;19914;-66
2022/04/19 04:05:05;;;;;;;;;;;5.80;99.90;;;;;;5001962;28;19925;-66
2022/04/19 04:07:31;;;;;;;;;;;5.80;99.90;;;;;;5002711;28;19914;-66
2022/04/19 04:09:56;;;;;;;;;;;5.70;99.90;;;;;;5001971;28;19949;-66
2022/04/19 04:12:22;;;;;;;;;;;5.80;99.90;;;;;;5002105;28;19961;-66
2022/04/19 04:14:47;;;;;;;;;;;5.80;99.90;;;;;;5002297;28;20008;-66
2022/04/19 04:17:13;;;;;;;;;;;5.70;99.90;;;;;;5002015;28;20381;-66
2022/04/19 04:19:38;;;;;;;;;;;5.70;99.90;;;;;;5001317;28;19956;-66
2022/04/19 04:22:04;;;;;;;;;;;5.70;99.90;;;;;;5001647;28;19917;-66
2022/04/19 04:24:29;;;;;;;;;;;5.80;99.90;;;;;;5002190;28;19977;-66
2022/04/19 04:26:55;;;;;;;;;;;6.00;99.90;;;;;;5001534;28;20222;-66
2022/04/19 04:29:20;;;;;;;;;;;6.20;99.90;;;;;;4999260;28;19929;-66
2022/04/19 04:31:45;;;;;;;;;;;6.40;99.80;;;;;;5002273;28;20285;-66
2022/04/19 04:34:11;;;;;;;;;;;6.30;99.50;;;;;;5000064;28;19922;-66
2022/04/19 04:36:36;;;;;;;;;;;6.20;99.40;;;;;;5001564;28;20031;-66
2022/04/19 04:39:03;;;;;;;;;;;6.20;99.60;;;;;;5000997;28;20067;-66
2022/04/19 04:41:28;;;;;;;;;;;6.20;99.70;;;;;;5001476;28;20294;-66
2022/04/19 04:43:54;;;;;;;;;;;6.40;99.60;;;;;;5000774;28;19914;-66
2022/04/19 04:51:48;;;;;;;;;;;6.50;98.90;;;;;;5001131;28;20377;-67
2022/04/19 04:54:13;;;;;;;;;;;6.30;99.10;;;;;;5000212;28;19914;-66
2022/04/19 04:56:39;;;;;;;;;;;6.20;99.10;;;;;;4997666;28;19917;-66
2022/04/19 04:59:04;;;;;;;;;;;6.20;99.20;;;;;;4999872;28;19918;-66
2022/04/19 05:01:29;;;;;;;;;;;6.10;99.20;;;;;;4999111;28;19918;-66
2022/04/19 05:03:55;;;;;;;;;;;6.10;99.20;;;;;;5001233;28;19939;-67
2022/04/19 05:06:20;;;;;;;;;;;6.00;99.20;;;;;;4999894;28;19925;-67
2022/04/19 05:08:46;;;;;;;;;;;6.00;99.20;;;;;;5000495;28;19921;-67
2022/04/19 05:11:11;;;;;;;;;;;6.00;99.20;;;;;;5000268;28;19914;-67
2022/04/19 05:13:36;;;;;;;;;;;6.00;99.30;;;;;;4999898;28;19917;-67
2022/04/19 05:16:02;;;;;;;;;;;6.20;99.30;;;;;;4999562;28;19997;-67
2022/04/19 05:18:30;;;;;;;;;;;6.20;98.70;;;;;;5000768;28;19924;-67
2022/04/19 05:20:55;;;;;;;;;;;6.10;98.80;;;;;;5000398;28;19925;-67
2022/04/19 05:23:21;;;;;;;;;;;6.10;98.70;;;;;;5000222;28;19925;-67
2022/04/19 05:25:46;;;;;;;;;;;6.10;98.60;;;;;;5000976;28;19925;-67
2022/04/19 05:28:12;;;;;;;;;;;6.30;98.60;;;;;;4999472;28;20378;-67
2022/04/19 05:30:37;;;;;;;;;;;6.40;98.50;;;;;;4998774;28;19925;-67
2022/04/19 05:33:02;;;;;;;;;;;6.50;98.10;;;;;;5000335;28;19924;-66
2022/04/19 05:35:28;;;;;;;;;;;6.60;98.10;;;;;;5000023;28;20399;-67
2022/04/19 05:37:55;;;;;;;;;;;6.70;98.10;;;;;;4996939;28;19914;-67
2022/04/19 05:40:21;;;;;;;;;;;6.80;97.50;;;;;;5000400;28;20373;-67
2022/04/19 05:42:46;;;;;;;;;;;6.90;97.20;;;;;;5000213;28;19925;-67
2022/04/19 05:45:12;;;;;;;;;;;7.00;97.20;;;;;;5000185;28;20400;-67
2022/04/19 05:47:37;;;;;;;;;;;7.00;96.70;;;;;;5000361;28;20380;-67
2022/04/19 05:50:03;;;;;;;;;;;7.10;96.90;;;;;;5000304;28;19976;-67
2022/04/19 05:52:28;;;;;;;;;;;7.30;96.80;;;;;;4999888;28;19921;-67
2022/04/19 05:54:54;;;;;;;;;;;7.30;96.30;;;;;;4998620;28;19948;-67
2022/04/19 05:57:19;;;;;;;;;;;7.30;96.00;;;;;;4999480;28;19913;-67
2022/04/19 05:59:44;;;;;;;;;;;7.30;96.30;;;;;;5000750;28;19928;-67
2022/04/19 06:04:54;;;;;;;;;;;7.70;96.20;;;;;;5001195;28;19928;-67
2022/04/19 06:07:20;;;;;;;;;;;7.70;94.20;;;;;;5000633;28;20345;-67
2022/04/19 06:09:45;;;;;;;;;;;7.50;94.80;;;;;;5000693;28;19917;-67
2022/04/19 06:12:10;;;;;;;;;;;7.50;95.00;;;;;;4999018;28;19914;-67
2022/04/19 06:14:36;;;;;;;;;;;7.50;95.00;;;;;;5000810;28;20412;-67
2022/04/19 06:17:07;;;;;;;;;;;7.50;95.10;;;;;;4999139;28;19918;-67
2022/04/19 06:19:33;;;;;;;;;;;7.70;95.10;;;;;;4995930;28;19925;-67
2022/04/19 06:21:59;;;;;;;;;;;7.80;94.70;;;;;;4998064;28;19925;-71
2022/04/19 06:24:25;;;;;;;;;;;7.70;94.60;;;;;;4998628;28;20367;-68
2022/04/19 06:26:51;;;;;;;;;;;7.80;94.50;;;;;;4998622;28;19913;-68
2022/04/19 06:29:16;;;;;;;;;;;7.70;93.30;;;;;;4999185;28;19940;-67
2022/04/19 06:31:43;;;;;;;;;;;7.60;93.90;;;;;;4999282;28;20275;-68
2022/04/19 06:34:09;;;;;;;;;;;7.60;93.90;;;;;;4999029;28;20377;-66
2022/04/19 06:36:34;;;;;;;;;;;7.50;93.80;;;;;;4997622;28;20007;-67
2022/04/19 06:39:00;;;;;;;;;;;7.60;94.00;;;;;;4999149;28;19976;-68
2022/04/19 06:41:25;;;;;;;;;;;7.70;93.80;;;;;;4999387;28;19941;-68
2022/04/19 06:43:51;;;;;;;;;;;7.80;93.20;;;;;;4999840;28;20370;-68
2022/04/19 06:46:17;;;;;;;;;;;7.80;92.10;;;;;;5000524;28;20329;-68
2022/04/19 06:48:43;;;;;;;;;;;7.90;92.50;;;;;;4999801;28;20040;-65
2022/04/19 06:51:09;;;;;;;;;;;8.10;92.50;;;;;;4998636;28;20404;-65
2022/04/19 06:53:37;;;;;;;;;;;8.20;91.30;;;;;;4999559;28;19917;-72
2022/04/19 06:56:04;;;;;;;;;;;8.40;89.40;;;;;;4998844;28;20367;-71
2022/04/19 06:58:30;;;;;;;;;;;8.50;84.60;;;;;;4999881;28;19968;-66
2022/04/19 07:00:56;;;;;;;;;;;8.50;86.30;;;;;;5000466;28;19965;-66
2022/04/19 07:03:22;;;;;;;;;;;8.60;80.40;;;;;;4999773;28;20805;-66
2022/04/19 07:05:48;;;;;;;;;;;8.60;78.00;;;;;;4998606;28;19921;-66
2022/04/19 07:08:13;;;;;;;;;;;8.60;80.30;;;;;;4998914;28;19963;-66
2022/04/19 07:10:38;;;;;;;;;;;8.70;77.50;;;;;;5002295;28;19921;-66
2022/04/19 07:13:04;;;;;;;;;;;8.80;74.50;;;;;;5001642;28;19948;-68
2022/04/19 07:15:29;;;;;;;;;;;8.90;73.30;;;;;;5003303;28;20026;-67
2022/04/19 07:17:55;;;;;;;;;;;9.00;76.00;;;;;;5002720;28;19924;-67
2022/04/19 07:28:35;;;;;;;;;;;9.50;70.00;;;;;;5003166;28;19977;-65
2022/04/19 07:31:03;;;;;;;;;;;9.70;66.10;;;;;;4999874;28;19914;-68
2022/04/19 07:33:29;;;;;;;;;;;9.70;64.80;;;;;;5004085;28;19922;-66
2022/04/19 07:35:55;;;;;;;;;;;9.80;65.60;;;;;;5003522;28;19932;-67
2022/04/19 07:38:21;;;;;;;;;;;9.90;64.40;;;;;;5002466;28;19918;-67
2022/04/19 07:40:46;;;;;;;;;;;9.90;65.70;;;;;;5003538;28;19918;-67
2022/04/19 07:43:11;;;;;;;;;;;10.00;63.30;;;;;;5002462;28;19968;-68
2022/04/19 07:45:37;;;;;;;;;;;10.20;63.90;;;;;;5003325;28;19940;-67
2022/04/19 07:48:04;;;;;;;;;;;10.20;63.40;;;;;;5001827;28;20297;-67
2022/04/19 07:50:30;;;;;;;;;;;10.30;63.60;;;;;;5002637;28;19914;-67
2022/04/19 07:52:55;;;;;;;;;;;10.30;62.60;;;;;;5001724;28;19917;-68
2022/04/19 07:55:21;;;;;;;;;;;10.20;60.00;;;;;;5000730;28;19922;-67
2022/04/19 07:57:47;;;;;;;;;;;10.20;60.40;;;;;;5002017;28;20366;-68
2022/04/19 08:00:13;;;;;;;;;;;10.20;59.90;;;;;;5001501;28;19979;-67
2022/04/19 08:02:39;;;;;;;;;;;10.20;60.10;;;;;;5001585;28;19918;-67
2022/04/19 08:05:05;;;;;;;;;;;10.30;59.70;;;;;;5001865;28;19936;-68
2022/04/19 08:07:31;;;;;;;;;;;10.30;59.10;;;;;;5000910;28;20363;-68
2022/04/19 08:09:58;;;;;;;;;;;10.40;57.90;;;;;;5002037;28;20286;-67
2022/04/19 08:12:24;;;;;;;;;;;10.40;60.30;;;;;;5000324;28;19918;-67
2022/04/19 08:14:49;;;;;;;;;;;10.60;59.40;;;;;;5000798;28;19925;-68
2022/04/19 08:17:15;;;;;;;;;;;10.70;59.10;;;;;;5000698;28;19959;-67
2022/04/19 08:19:40;;;;;;;;;;;10.70;59.00;;;;;;5001336;28;19960;-68
2022/04/19 08:22:06;;;;;;;;;;;10.80;59.70;;;;;;5001230;28;19917;-68
2022/04/19 08:24:31;;;;;;;;;;;10.90;57.80;;;;;;5003016;28;19914;-67
2022/04/19 08:26:57;;;;;;;;;;;11.00;56.10;;;;;;5000460;28;19917;-69
2022/04/19 08:29:22;;;;;;;;;;;10.90;54.90;;;;;;5002246;28;19929;-68
2022/04/19 08:31:48;;;;;;;;;;;10.90;54.20;;;;;;5001856;28;19922;-68
2022/04/19 08:34:14;;;;;;;;;;;10.90;54.10;;;;;;5001174;28;19925;-68
2022/04/19 08:36:40;;;;;;;;;;;10.90;51.70;;;;;;5001107;28;20651;-68
2022/04/19 08:39:05;;;;;;;;;;;10.90;53.00;;;;;;5001556;28;19925;-67
2022/04/19 08:41:31;;;;;;;;;;;11.00;53.00;;;;;;4999668;28;20351;-67
2022/04/19 08:43:57;;;;;;;;;;;11.10;52.50;;;;;;5001019;28;19913;-68
2022/04/19 08:46:23;;;;;;;;;;;11.20;52.20;;;;;;5001632;28;20043;-68
2022/04/19 08:48:48;;;;;;;;;;;11.30;51.30;;;;;;5001229;28;19921;-70
2022/04/19 08:51:18;;;;;;;;;;;11.40;51.70;;;;;;5000151;28;19917;-69
2022/04/19 08:59:14;;;;;;;;;;;11.40;50.00;;;;;;5000336;28;19926;-67
2022/04/19 09:01:41;;;;;;;;;;;11.40;51.00;;;;;;5000693;28;20390;-68
2022/04/19 09:04:06;;;;;;;;;;;11.60;49.10;;;;;;5000362;28;19909;-68
2022/04/19 09:06:48;;;;;;;;;;;11.60;49.80;;;;;;5001404;28;19918;-68
2022/04/19 09:09:13;;;;;;;;;;;11.70;51.00;;;;;;4999782;28;19917;-67
2022/04/19 09:11:39;;;;;;;;;;;11.80;49.40;;;;;;5000703;28;20287;-68
2022/04/19 09:14:05;;;;;;;;;;;12.00;48.30;;;;;;5000300;28;19917;-68
2022/04/19 09:16:31;;;;;;;;;;;12.10;48.00;;;;;;5000460;28;19944;-69
2022/04/19 09:18:56;;;;;;;;;;;12.20;48.20;;;;;;5000673;28;19914;-68
2022/04/19 09:21:34;;;;;;;;;;;12.20;47.50;;;;;;5000636;28;20350;-69
2022/04/19 09:23:59;;;;;;;;;;;12.30;47.20;;;;;;4998859;28;19913;-68
2022/04/19 09:26:40;;;;;;;;;;;12.30;47.80;;;;;;5000325;28;19944;-69
2022/04/19 09:29:18;;;;;;;;;;;12.40;48.30;;;;;;4999662;28;20363;-69
2022/04/19 09:31:43;;;;;;;;;;;12.40;47.80;;;;;;4999555;28;19918;-68
2022/04/19 09:34:09;;;;;;;;;;;12.30;47.90;;;;;;5000573;28;20009;-68
2022/04/19 09:36:34;;;;;;;;;;;12.40;48.30;;;;;;5000958;28;19975;-66
2022/04/19 09:38:59;;;;;;;;;;;12.40;48.50;;;;;;5000050;28;19940;-68
2022/04/19 09:41:31;;;;;;;;;;;12.50;48.10;;;;;;5000850;28;19913;-69
2022/04/19 09:44:04;;;;;;;;;;;12.50;48.50;;;;;;4999374;28;19914;-69
2022/04/19 09:46:29;;;;;;;;;;;12.50;48.10;;;;;;4998972;28;19964;-67
2022/04/19 09:48:55;;;;;;;;;;;12.60;47.90;;;;;;5000553;28;19956;-68
2022/04/19 09:51:30;;;;;;;;;;;12.60;48.70;;;;;;4999313;28;19918;-69
2022/04/19 09:53:56;;;;;;;;;;;12.60;48.90;;;;;;5000233;28;20302;-68
2022/04/19 09:56:21;;;;;;;;;;;12.80;48.20;;;;;;4998367;28;20401;-69
2022/04/19 09:58:50;;;;;;;;;;;12.90;48.70;;;;;;4999978;28;19914;-68
2022/04/19 10:09:35;;;;;;;;;;;13.20;48.40;;;;;;4999388;28;20284;-68
2022/04/19 10:12:01;;;;;;;;;;;13.10;47.10;;;;;;4998518;28;20271;-68
2022/04/19 10:14:28;;;;;;;;;;;13.10;46.80;;;;;;4999223;28;20405;-68
2022/04/19 10:16:55;;;;;;;;;;;13.10;47.10;;;;;;4998273;28;19922;-71
2022/04/19 10:19:20;;;;;;;;;;;13.10;48.00;;;;;;4999348;28;19940;-69
2022/04/19 10:21:47;;;;;;;;;;;13.20;48.70;;;;;;4999387;28;20267;-68
2022/04/19 10:24:16;;;;;;;;;;;13.20;47.90;;;;;;4999534;28;19924;-69
2022/04/19 10:26:46;;;;;;;;;;;13.10;48.00;;;;;;4998781;28;20359;-68
2022/04/19 10:29:29;;;;;;;;;;;13.10;48.50;;;;;;5000274;28;19968;-68
2022/04/19 10:32:02;;;;;;;;;;;13.10;47.80;;;;;;5000122;28;19941;-68
2022/04/19 10:34:35;;;;;;;;;;;13.20;47.40;;;;;;4998356;28;20461;-71
2022/04/19 10:37:18;;;;;;;;;;;13.20;47.90;;;;;;4999324;28;19921;-71
2022/04/19 10:39:47;;;;;;;;;;;13.30;48.00;;;;;;4998983;28;19945;-71
2022/04/19 10:42:32;;;;;;;;;;;13.50;46.40;;;;;;4998958;28;19971;-72
2022/04/19 10:45:18;;;;;;;;;;;13.40;46.40;;;;;;5000358;28;20513;-67
2022/04/19 10:47:53;;;;;;;;;;;13.50;48.40;;;;;;5002721;28;20366;-68
2022/04/19 10:50:25;;;;;;;;;;;13.60;48.10;;;;;;5001950;28;19914;-68
2022/04/19 10:52:51;;;;;;;;;;;13.70;45.90;;;;;;5003335;28;20290;-67
2022/04/19 10:55:17;;;;;;;;;;;13.60;46.00;;;;;;5003101;28;19928;-66
2022/04/19 11:00:27;;;;;;;;;;;13.50;46.20;;;;;;5004299;28;19932;-70
2022/04/19 11:02:56;;;;;;;;;;;13.60;46.30;;;;;;5004049;28;19925;-73
2022/04/19 11:05:41;;;;;;;;;;;13.70;47.00;;;;;;5002546;28;20446;-73
2022/04/19 11:08:29;;;;;;;;;;;13.80;46.60;;;;;;5003602;28;19918;-73
2022/04/19 11:10:55;;;;;;;;;;;13.90;45.40;;;;;;5002217;28;20294;-71
2022/04/19 11:13:27;;;;;;;;;;;13.80;44.50;;;;;;5003189;28;20367;-71
2022/04/19 11:16:00;;;;;;;;;;;13.80;45.20;;;;;;5003724;28;19930;-70
2022/04/19 11:18:26;;;;;;;;;;;13.90;45.50;;;;;;5001989;28;19914;-70
2022/04/19 11:20:53;;;;;;;;;;;14.00;44.60;;;;;;5003413;28;19917;-68
2022/04/19 11:23:19;;;;;;;;;;;14.20;44.00;;;;;;5002007;28;19921;-68
2022/04/19 11:25:46;;;;;;;;;;;14.20;43.00;;;;;;5003585;28;19914;-69
2022/04/19 11:28:11;;;;;;;;;;;14.30;42.10;;;;;;5001637;28;19921;-69
2022/04/19 11:30:41;;;;;;;;;;;14.10;42.30;;;;;;5002959;28;19940;-69
2022/04/19 11:33:08;;;;;;;;;;;14.10;42.60;;;;;;5002085;28;20007;-69
2022/04/19 11:35:34;;;;;;;;;;;14.10;42.20;;;;;;5001962;28;20461;-67
2022/04/19 11:38:08;;;;;;;;;;;14.00;43.80;;;;;;5001718;28;19910;-68
2022/04/19 11:49:01;;;;;;;;;;;14.30;42.90;;;;;;5001568;28;19925;-69
2022/04/19 11:51:27;;;;;;;;;;;14.40;42.50;;;;;;5003232;28;19913;-69
2022/04/19 11:53:52;;;;;;;;;;;14.50;42.90;;;;;;5002570;28;19969;-68
2022/04/19 11:56:18;;;;;;;;;;;14.60;41.00;;;;;;5001827;28;19949;-69
2022/04/19 11:58:48;;;;;;;;;;;14.50;42.10;;;;;;5001260;28;19914;-69
2022/04/19 12:01:15;;;;;;;;;;;14.50;41.60;;;;;;5002627;28;19964;-72
2022/04/19 12:03:40;;;;;;;;;;;14.60;40.40;;;;;;5001774;28;19910;-73
2022/04/19 12:06:08;;;;;;;;;;;14.60;40.90;;;;;;5001619;28;19932;-71
2022/04/19 12:08:46;;;;;;;;;;;14.60;40.90;;;;;;5002404;28;19921;-71
2022/04/19 12:11:16;;;;;;;;;;;14.70;40.00;;;;;;5001445;28;19917;-72
2022/04/19 12:13:42;;;;;;;;;;;14.70;40.50;;;;;;5001234;28;19961;-71
2022/04/19 12:16:25;;;;;;;;;;;14.80;39.80;;;;;;5001626;28;19921;-72
2022/04/19 12:18:52;;;;;;;;;;;14.80;39.50;;;;;;5001332;28;19918;-72
2022/04/19 12:21:31;;;;;;;;;;;14.70;39.30;;;;;;5000903;28;19917;-73
2022/04/19 12:23:57;;;;;;;;;;;14.60;39.60;;;;;;5002710;28;19921;-71
2022/04/19 12:26:24;;;;;;;;;;;14.60;40.10;;;;;;5001132;28;19944;-70
2022/04/19 12:28:50;;;;;;;;;;;14.80;40.40;;;;;;5001429;28;20212;-69
2022/04/19 12:31:32;;;;;;;;;;;15.00;38.20;;;;;;5002254;28;19928;-69
2022/04/19 12:33:58;;;;;;;;;;;14.90;38.20;;;;;;5001429;28;19925;-71
2022/04/19 12:36:25;;;;;;;;;;;14.80;37.50;;;;;;5000639;28;20000;-72
2022/04/19 12:39:01;;;;;;;;;;;14.70;37.90;;;;;;5001403;28;20021;-72
2022/04/19 12:41:43;;;;;;;;;;;14.70;37.90;;;;;;5001224;28;19918;-69
2022/04/19 12:44:09;;;;;;;;;;;14.50;37.80;;;;;;5001259;28;19920;-69
2022/04/19 12:46:45;;;;;;;;;;;14.50;37.80;;;;;;5000998;28;19917;-70
2022/04/19 12:49:23;;;;;;;;;;;14.60;38.80;;;;;;5000587;28;20362;-70
2022/04/19 12:52:03;;;;;;;;;;;14.90;38.30;;;;;;5000368;28;19925;-71
2022/04/19 12:54:28;;;;;;;;;;;15.00;37.50;;;;;;5001711;28;19921;-70
2022/04/19 12:57:01;;;;;;;;;;;15.10;36.90;;;;;;5002198;28;19960;-70
2022/04/19 12:59:28;;;;;;;;;;;15.30;36.80;;;;;;5000049;28;19922;-69
2022/04/19 13:01:53;;;;;;;;;;;15.30;36.40;;;;;;5001222;28;19917;-69
2022/04/19 13:04:19;;;;;;;;;;;15.30;36.30;;;;;;5000650;28;19918;-70
2022/04/19 13:12:26;;;;;;;;;;;15.30;36.80;;;;;;5000896;28;19940;-69
2022/04/19 13:14:53;;;;;;;;;;;15.10;37.30;;;;;;5000566;28;19925;-70
2022/04/19 13:17:19;;;;;;;;;;;15.00;37.30;;;;;;5000266;28;19917;-71
2022/04/19 13:19:48;;;;;;;;;;;15.10;37.20;;;;;;5000301;28;20012;-68
2022/04/19 13:22:13;;;;;;;;;;;15.10;37.80;;;;;;5000569;28;19969;-66
2022/04/19 13:24:39;;;;;;;;;;;15.20;37.00;;;;;;4999026;28;19921;-66
2022/04/19 13:27:06;;;;;;;;;;;15.20;37.40;;;;;;5000009;28;20457;-66
2022/04/19 13:29:32;;;;;;;;;;;15.20;36.30;;;;;;5000535;28;19913;-67
2022/04/19 13:31:57;;;;;;;;;;;15.20;36.70;;;;;;5000223;28;20004;-67
2022/04/19 13:34:23;;;;;;;;;;;15.20;36.80;;;;;;4999881;28;19922;-67
2022/04/19 13:36:48;;;;;;;;;;;15.30;36.40;;;;;;5000704;28;19917;-67
2022/04/19 13:39:14;;;;;;;;;;;15.40;36.70;;;;;;4999373;28;19914;-68
2022/04/19 13:41:41;;;;;;;;;;;15.50;36.90;;;;;;5000201;28;20354;-69
2022/04/19 13:44:10;;;;;;;;;;;15.40;36.60;;;;;;4999423;28;20036;-68
2022/04/19 13:46:35;;;;;;;;;;;15.40;37.50;;;;;;5001076;28;20432;-69
2022/04/19 13:49:01;;;;;;;;;;;15.40;37.80;;;;;;5000195;28;19957;-69
2022/04/19 13:51:26;;;;;;;;;;;15.40;36.90;;;;;;4999445;28;19925;-68
2022/04/19 13:53:52;;;;;;;;;;;15.20;36.70;;;;;;4999636;28;19925;-68
2022/04/19 13:56:17;;;;;;;;;;;15.00;37.00;;;;;;4999939;28;19925;-68
2022/04/19 13:58:43;;;;;;;;;;;14.90;37.10;;;;;;4998809;28;19918;-69
2022/04/19 14:01:08;;;;;;;;;;;14.90;37.80;;;;;;4999488;28;19922;-68
2022/04/19 14:03:34;;;;;;;;;;;14.90;37.70;;;;;;5000478;28;19918;-68
2022/04/19 14:06:02;;;;;;;;;;;14.90;37.70;;;;;;5000648;28;19916;-69
2022/04/19 14:08:27;;;;;;;;;;;14.80;37.70;;;;;;4998896;28;19957;-70
2022/04/19 14:10:53;;;;;;;;;;;14.90;38.10;;;;;;5001118;28;19945;-70
2022/04/19 14:13:18;;;;;;;;;;;14.90;37.80;;;;;;4998476;28;19917;-68
2022/04/19 14:15:44;;;;;;;;;;;14.90;38.40;;;;;;4998189;28;19922;-72
2022/04/19 14:18:10;;;;;;;;;;;15.00;38.70;;;;;;4999589;28;19961;-70
2022/04/19 14:20:35;;;;;;;;;;;15.10;38.30;;;;;;5000482;28;19933;-70
2022/04/19 14:23:01;;;;;;;;;;;15.20;38.30;;;;;;4999591;28;20204;-70
2022/04/19 14:25:26;;;;;;;;;;;15.30;38.10;;;;;;4999836;28;19936;-70
2022/04/19 14:27:52;;;;;;;;;;;15.20;38.20;;;;;;4999528;28;19963;-70
2022/04/19 14:33:16;;;;;;;;;;;15.30;38.10;;;;;;4998120;28;19920;-69
2022/04/19 14:35:42;;;;;;;;;;;15.30;38.30;;;;;;4999144;28;20179;-69
2022/04/19 14:38:08;;;;;;;;;;;15.40;38.40;;;;;;4999477;28;19910;-69
2022/04/19 14:40:33;;;;;;;;;;;15.40;38.70;;;;;;4999666;28;19996;-69
2022/04/19 14:42:58;;;;;;;;;;;15.40;38.70;;;;;;4999526;28;19955;-69
2022/04/19 14:45:24;;;;;;;;;;;15.40;38.80;;;;;;5000043;28;20298;-68
2022/04/19 14:47:49;;;;;;;;;;;15.40;38.80;;;;;;4999260;28;19921;-69
2022/04/19 14:50:15;;;;;;;;;;;15.30;39.10;;;;;;4998987;28;20048;-69
2022/04/19 14:52:40;;;;;;;;;;;15.30;39.40;;;;;;4999851;28;19964;-69
2022/04/19 14:55:06;;;;;;;;;;;15.40;39.30;;;;;;4999521;28;20325;-69
2022/04/19 14:57:32;;;;;;;;;;;15.40;39.50;;;;;;4999879;28;19917;-69
2022/04/19 14:59:57;;;;;;;;;;;15.30;39.20;;;;;;4998531;28;19921;-71
2022/04/19 15:02:23;;;;;;;;;;;15.30;39.60;;;;;;4996809;28;19940;-71
2022/04/19 15:04:49;;;;;;;;;;;15.20;39.20;;;;;;4999484;28;19949;-71
2022/04/19 15:07:14;;;;;;;;;;;15.20;39.60;;;;;;4996921;28;19921;-71
2022/04/19 15:09:40;;;;;;;;;;;15.20;39.60;;;;;;5000126;28;20302;-74
2022/04/19 15:12:06;;;;;;;;;;;15.30;39.60;;;;;;4999169;28;19924;-73
2022/04/19 15:14:32;;;;;;;;;;;15.40;40.00;;;;;;4999190;28;20352;-73
2022/04/19 15:16:57;;;;;;;;;;;15.40;40.60;;;;;;4998816;28;19914;-73
2022/04/19 15:19:23;;;;;;;;;;;15.30;40.00;;;;;;4998955;28;20112;-74